Time;durP1;ratioP1;P1;durP2;ratioP2;P2;SDS_P1;SDS_P2;PMS_P1;PMS_P2;Temp;Humidity;BMP_temperature;BMP_pressure;BME280_temperature;BME280_humidity;BME280_pressure;Samples;Min_cycle;Max_cycle;Signal;HPM_P1;HPM_P2
2024/01/27 00:00:53;;;;;;;6.40;2.80;;;;;;;5.54;62.25;100389.53;104959;1253;65474;-65
2024/01/27 00:03:21;;;;;;;8.60;3.10;;;;;;;5.53;62.21;100390.13;105231;1256;60700;-66
2024/01/27 00:05:49;;;;;;;6.70;2.50;;;;;;;5.51;61.97;100384.52;105247;1254;63741;-62
2024/01/27 00:08:16;;;;;;;7.70;3.00;;;;;;;5.48;61.94;100386.95;105191;1254;60540;-69
2024/01/27 00:10:45;;;;;;;6.40;2.40;;;;;;;5.51;61.79;100380.34;105099;1251;60622;-65
2024/01/27 00:13:13;;;;;;;6.50;2.80;;;;;;;5.55;61.51;100382.34;105336;1257;64867;-61
2024/01/27 00:15:41;;;;;;;9.60;2.80;;;;;;;5.58;61.55;100380.61;105196;1254;61774;-66
2024/01/27 00:18:08;;;;;;;7.20;3.20;;;;;;;5.59;61.62;100377.90;105350;1254;63731;-62
2024/01/27 00:20:37;;;;;;;6.00;2.40;;;;;;;5.60;61.59;100375.43;105239;1256;60556;-65
2024/01/27 00:23:05;;;;;;;5.00;3.00;;;;;;;5.62;61.52;100374.79;106385;1253;60456;-66
2024/01/27 00:25:32;;;;;;;7.20;2.70;;;;;;;5.56;61.42;100373.05;106489;1257;64875;-61
2024/01/27 00:28:00;;;;;;;7.10;3.80;;;;;;;5.50;61.38;100370.65;105147;1257;60758;-63
2024/01/27 00:30:27;;;;;;;8.90;3.30;;;;;;;5.47;61.38;100368.73;105354;1251;62484;-64
2024/01/27 00:32:55;;;;;;;6.30;2.20;;;;;;;5.48;61.46;100369.90;105978;1257;63845;-63
2024/01/27 00:35:23;;;;;;;7.10;2.90;;;;;;;5.49;61.34;100370.33;106921;1252;59128;-61
2024/01/27 00:37:51;;;;;;;6.00;2.50;;;;;;;5.57;61.27;100373.85;105255;1257;64921;-62
2024/01/27 00:40:18;;;;;;;6.90;2.70;;;;;;;5.60;61.32;100371.80;105199;1256;61377;-60
2024/01/27 00:42:46;;;;;;;6.70;2.70;;;;;;;5.60;61.33;100370.73;105492;1254;63734;-60
2024/01/27 00:45:13;;;;;;;8.00;2.70;;;;;;;5.58;61.33;100373.97;105234;1254;60528;-61
2024/01/27 00:47:41;;;;;;;8.80;2.10;;;;;;;5.54;61.12;100372.15;105242;1255;60444;-62
2024/01/27 00:50:09;;;;;;;8.40;3.00;;;;;;;5.44;61.22;100375.15;105132;1254;64907;-64
2024/01/27 00:52:36;;;;;;;7.20;2.30;;;;;;;5.31;61.25;100377.83;105547;1254;61500;-63
2024/01/27 00:55:05;;;;;;;7.70;3.10;;;;;;;5.13;61.33;100375.41;105629;1252;63659;-60
2024/01/27 00:57:32;;;;;;;8.10;4.20;;;;;;;4.99;61.65;100374.63;105393;1254;60416;-61
2024/01/27 01:00:00;;;;;;;6.90;2.20;;;;;;;4.91;61.94;100377.49;105189;1255;60350;-61
2024/01/27 01:02:29;;;;;;;7.60;2.50;;;;;;;4.92;62.02;100379.71;107414;1254;65337;-64
2024/01/27 01:04:56;;;;;;;6.00;2.30;;;;;;;4.96;62.04;100375.45;105338;1254;61443;-64
2024/01/27 01:07:24;;;;;;;4.60;1.50;;;;;;;5.04;62.35;100380.61;105296;1254;64452;-64
2024/01/27 01:09:51;;;;;;;7.10;2.40;;;;;;;5.13;62.24;100379.91;106687;1253;60554;-64
2024/01/27 01:12:19;;;;;;;7.80;2.50;;;;;;;5.23;62.38;100382.66;105231;1257;60685;-64
2024/01/27 01:14:47;;;;;;;6.60;3.20;;;;;;;5.33;62.38;100378.60;105554;1251;63653;-65
2024/01/27 01:17:14;;;;;;;8.10;2.80;;;;;;;5.38;62.26;100378.30;105311;1251;61306;-66
2024/01/27 01:19:42;;;;;;;6.50;2.60;;;;;;;5.39;62.11;100378.73;105283;1254;63692;-70
2024/01/27 01:22:10;;;;;;;8.30;2.70;;;;;;;5.38;62.09;100377.72;106326;1254;60641;-66
2024/01/27 01:24:39;;;;;;;6.30;2.10;;;;;;;5.35;61.86;100378.45;105388;1256;60366;-65
2024/01/27 01:27:07;;;;;;;6.30;2.80;;;;;;;5.25;61.81;100379.57;105314;1251;63957;-66
2024/01/27 01:29:35;;;;;;;6.40;2.20;;;;;;;5.15;61.92;100379.48;105759;1251;61765;-64
2024/01/27 01:32:03;;;;;;;7.10;2.80;;;;;;;5.16;62.01;100379.92;105406;1254;63847;-64
2024/01/27 01:34:31;;;;;;;5.30;1.80;;;;;;;5.21;61.99;100377.21;105942;1254;60510;-64
2024/01/27 01:36:59;;;;;;;4.80;1.70;;;;;;;5.30;61.80;100374.61;106631;1257;59266;-66
2024/01/27 01:39:27;;;;;;;6.40;2.70;;;;;;;5.34;61.68;100371.25;105994;1254;63618;-64
2024/01/27 01:41:54;;;;;;;8.00;3.20;;;;;;;5.32;61.63;100370.48;106043;1251;63145;-65
2024/01/27 01:44:22;;;;;;;7.70;2.40;;;;;;;5.35;61.71;100369.58;105987;1252;62470;-64
2024/01/27 01:46:49;;;;;;;6.90;2.20;;;;;;;5.42;61.75;100360.83;105441;1254;60488;-64
2024/01/27 01:49:17;;;;;;;5.60;2.50;;;;;;;5.41;61.59;100359.33;105294;1258;60457;-63
2024/01/27 01:51:45;;;;;;;5.30;2.10;;;;;;;5.33;61.62;100362.09;105250;1257;63655;-63
2024/01/27 01:54:12;;;;;;;5.80;2.30;;;;;;;5.27;61.67;100368.15;105247;1254;61414;-64
2024/01/27 01:56:40;;;;;;;10.10;2.50;;;;;;;5.21;61.73;100364.98;105010;1254;67554;-63
2024/01/27 01:59:08;;;;;;;6.00;2.20;;;;;;;5.16;61.85;100365.28;105051;1257;60399;-61
2024/01/27 02:01:35;;;;;;;6.70;2.80;;;;;;;5.12;61.98;100366.04;105705;1256;61752;-62
2024/01/27 02:04:04;;;;;;;5.20;2.10;;;;;;;5.07;62.10;100367.20;105139;1251;73146;-69
2024/01/27 02:06:32;;;;;;;6.90;2.40;;;;;;;5.07;62.03;100368.27;105658;1257;61309;-69
2024/01/27 02:08:59;;;;;;;7.20;2.00;;;;;;;5.08;61.89;100367.34;105151;1254;67142;-72
2024/01/27 02:11:27;;;;;;;7.70;3.20;;;;;;;5.11;62.00;100366.31;105216;1252;60558;-67
2024/01/27 02:13:54;;;;;;;6.10;1.90;;;;;;;5.12;62.05;100367.08;105274;1252;60575;-66
2024/01/27 02:16:22;;;;;;;3.80;1.50;;;;;;;5.17;62.18;100371.66;105265;1252;64958;-68
2024/01/27 02:18:50;;;;;;;7.70;2.80;;;;;;;5.21;62.15;100371.97;105547;1256;61286;-67
2024/01/27 02:21:17;;;;;;;8.10;3.50;;;;;;;5.16;62.04;100371.24;105322;1251;63761;-66
2024/01/27 02:23:45;;;;;;;7.40;2.70;;;;;;;5.08;62.11;100373.41;105571;1251;60437;-66
2024/01/27 02:26:13;;;;;;;7.00;2.40;;;;;;;5.02;62.21;100376.34;105528;1256;60386;-68
2024/01/27 02:28:40;;;;;;;7.20;2.50;;;;;;;4.93;62.22;100374.44;105495;1257;64865;-68
2024/01/27 02:31:08;;;;;;;5.80;2.00;;;;;;;4.79;62.35;100376.63;105456;1256;61299;-65
2024/01/27 02:33:36;;;;;;;8.30;2.70;;;;;;;4.67;62.63;100379.86;105314;1252;63728;-66
2024/01/27 02:36:04;;;;;;;7.70;2.50;;;;;;;4.58;62.90;100382.27;105770;1252;60562;-66
2024/01/27 02:38:31;;;;;;;5.90;2.30;;;;;;;4.55;62.87;100383.64;106025;1251;60471;-59
2024/01/27 02:40:59;;;;;;;7.70;2.50;;;;;;;4.58;63.04;100388.69;106677;1257;63714;-61
2024/01/27 02:43:27;;;;;;;5.80;2.30;;;;;;;4.60;63.03;100392.08;105413;1251;61369;-60
2024/01/27 02:45:55;;;;;;;8.10;3.10;;;;;;;4.62;63.31;100385.52;105328;1252;64280;-65
2024/01/27 02:48:23;;;;;;;5.20;1.70;;;;;;;4.67;63.42;100390.31;106117;1251;60468;-68
2024/01/27 02:50:50;;;;;;;5.80;2.40;;;;;;;4.76;63.34;100390.70;106304;1252;60472;-65
2024/01/27 02:53:18;;;;;;;7.70;2.90;;;;;;;4.77;63.41;100388.71;105303;1256;64949;-64
2024/01/27 02:55:46;;;;;;;6.50;2.20;;;;;;;4.75;63.49;100387.75;106912;1256;60347;-69
2024/01/27 02:58:13;;;;;;;5.10;2.80;;;;;;;4.71;63.53;100387.67;105235;1257;62425;-67
2024/01/27 03:00:41;;;;;;;9.10;2.80;;;;;;;4.67;63.52;100387.20;105243;1256;59336;-63
2024/01/27 03:03:09;;;;;;;6.00;2.40;;;;;;;4.64;63.71;100390.09;105451;1256;61127;-62
2024/01/27 03:05:37;;;;;;;7.00;2.10;;;;;;;4.62;63.69;100390.73;105514;1256;64997;-67
2024/01/27 03:08:05;;;;;;;7.40;3.20;;;;;;;4.59;63.74;100388.64;107148;1256;60357;-64
2024/01/27 03:10:33;;;;;;;7.90;2.90;;;;;;;4.55;63.68;100390.64;105346;1252;63771;-64
2024/01/27 03:13:01;;;;;;;6.60;2.30;;;;;;;4.48;63.79;100389.27;105386;1257;60837;-64
2024/01/27 03:15:28;;;;;;;6.20;2.40;;;;;;;4.41;63.93;100383.73;105521;1257;60345;-66
2024/01/27 03:17:56;;;;;;;7.80;2.60;;;;;;;4.43;63.86;100379.43;105901;1256;64923;-65
2024/01/27 03:20:24;;;;;;;5.90;2.10;;;;;;;4.49;63.72;100379.30;105436;1254;61764;-65
2024/01/27 03:22:51;;;;;;;6.60;2.70;;;;;;;4.53;63.57;100378.20;105344;1257;62435;-69
2024/01/27 03:25:19;;;;;;;8.10;3.40;;;;;;;4.54;63.69;100376.43;105352;1256;61162;-70
2024/01/27 03:27:46;;;;;;;11.40;4.60;;;;;;;4.57;63.65;100376.08;105419;1256;60432;-66
2024/01/27 03:30:14;;;;;;;12.80;5.60;;;;;;;4.64;63.62;100376.75;105358;1252;63636;-66
2024/01/27 03:32:42;;;;;;;12.10;4.90;;;;;;;4.73;63.59;100376.63;105390;1251;70409;-63
2024/01/27 03:35:10;;;;;;;10.30;6.90;;;;;;;4.75;63.60;100377.04;105668;1256;63686;-73
2024/01/27 03:37:38;;;;;;;9.80;4.10;;;;;;;4.73;63.72;100374.69;105261;1251;60568;-66
2024/01/27 03:40:06;;;;;;;8.00;3.50;;;;;;;4.72;63.75;100373.54;105336;1256;60327;-65
2024/01/27 03:42:34;;;;;;;9.00;3.00;;;;;;;4.69;63.89;100372.11;105642;1255;63667;-62
2024/01/27 03:45:02;;;;;;;7.10;2.70;;;;;;;4.71;63.93;100371.33;105230;1251;61870;-61
2024/01/27 03:47:29;;;;;;;8.80;3.30;;;;;;;4.76;63.85;100369.16;105221;1257;63908;-63
2024/01/27 03:49:57;;;;;;;6.30;2.30;;;;;;;4.74;63.67;100372.36;105339;1257;60546;-63
2024/01/27 03:52:25;;;;;;;7.40;2.70;;;;;;;4.67;63.46;100370.66;105340;1251;60529;-64
2024/01/27 03:54:52;;;;;;;8.10;2.90;;;;;;;4.63;63.58;100367.96;105441;1257;64897;-63
2024/01/27 03:57:21;;;;;;;7.40;2.60;;;;;;;4.58;63.66;100370.29;105298;1256;61344;-63
2024/01/27 03:59:49;;;;;;;8.10;2.70;;;;;;;4.57;63.52;100375.23;105533;1257;62856;-61
2024/01/27 04:02:16;;;;;;;6.40;2.50;;;;;;;4.64;63.43;100375.86;105360;1255;60360;-61
2024/01/27 04:04:44;;;;;;;7.30;2.20;;;;;;;4.70;63.25;100380.95;105308;1256;60541;-69
2024/01/27 04:07:12;;;;;;;5.40;1.80;;;;;;;4.66;63.03;100387.04;105379;1257;64947;-65
2024/01/27 04:09:40;;;;;;;5.40;1.70;;;;;;;4.61;63.02;100388.39;105319;1257;61363;-64
2024/01/27 04:12:08;;;;;;;10.60;5.10;;;;;;;4.59;63.10;100387.45;105407;1254;63675;-70
2024/01/27 04:14:36;;;;;;;21.50;11.70;;;;;;;4.61;63.14;100388.73;105256;1256;60565;-67
2024/01/27 04:17:04;;;;;;;20.40;10.50;;;;;;;4.58;63.17;100388.34;105147;1256;60441;-67
2024/01/27 04:19:32;;;;;;;19.10;9.10;;;;;;;4.58;63.37;100387.86;105582;1253;66673;-74
2024/01/27 04:21:59;;;;;;;38.30;18.50;;;;;;;4.52;63.42;100385.40;105248;1256;60477;-70
2024/01/27 04:24:27;;;;;;;31.40;15.70;;;;;;;4.42;63.53;100386.16;105048;1257;62529;-66
2024/01/27 04:26:55;;;;;;;30.10;13.50;;;;;;;4.32;63.63;100384.38;105218;1254;60510;-66
2024/01/27 04:29:22;;;;;;;20.60;9.70;;;;;;;4.30;63.69;100385.39;105350;1255;60365;-62
2024/01/27 04:31:50;;;;;;;37.50;18.00;;;;;;;4.25;63.83;100383.41;105158;1257;63631;-65
2024/01/27 04:34:18;;;;;;;23.90;11.10;;;;;;;4.22;63.73;100386.47;105236;1261;61364;-69
2024/01/27 04:36:46;;;;;;;11.10;4.20;;;;;;;4.22;63.81;100389.44;105190;1254;63757;-68
2024/01/27 04:39:15;;;;;;;10.70;4.40;;;;;;;4.29;63.99;100393.05;105382;1257;60313;-65
2024/01/27 04:41:46;;;;;;;9.20;3.80;;;;;;;4.40;64.05;100397.17;106986;1256;60418;-65
2024/01/27 04:44:14;;;;;;;6.90;2.10;;;;;;;4.50;63.83;100400.27;107011;1256;65379;-64
2024/01/27 04:46:41;;;;;;;7.20;2.50;;;;;;;4.58;63.81;100396.72;105356;1256;61327;-64
2024/01/27 04:49:09;;;;;;;6.10;1.70;;;;;;;4.64;63.77;100398.48;105467;1253;63771;-64
2024/01/27 04:51:37;;;;;;;7.30;2.30;;;;;;;4.70;63.85;100401.43;105569;1256;60510;-63
2024/01/27 04:54:04;;;;;;;5.80;2.60;;;;;;;4.74;63.89;100404.17;105272;1258;60543;-64
2024/01/27 04:56:32;;;;;;;5.20;1.70;;;;;;;4.76;63.74;100408.40;105402;1257;64987;-64
2024/01/27 04:59:00;;;;;;;5.90;2.00;;;;;;;4.73;63.59;100410.69;105271;1256;62012;-64
2024/01/27 05:01:27;;;;;;;5.50;2.20;;;;;;;4.68;63.55;100409.41;105832;1251;63718;-61
2024/01/27 05:03:55;;;;;;;7.90;3.40;;;;;;;4.67;63.61;100408.21;105324;1254;61720;-63
2024/01/27 05:06:22;;;;;;;8.70;3.50;;;;;;;4.67;63.87;100408.41;105343;1253;60342;-70
2024/01/27 05:08:50;;;;;;;7.20;2.40;;;;;;;4.64;63.68;100408.36;105367;1257;63676;-67
2024/01/27 05:11:31;;;;;;;6.30;3.00;;;;;;;4.56;63.44;100411.58;105364;1256;60422;-69
2024/01/27 05:14:00;;;;;;;6.00;2.60;;;;;;;4.52;63.37;100415.64;105844;1254;63709;-74
2024/01/27 05:16:28;;;;;;;6.70;2.00;;;;;;;4.57;63.25;100418.30;105358;1255;60559;-64
2024/01/27 05:18:55;;;;;;;4.60;1.60;;;;;;;4.64;63.35;100420.20;105671;1251;382111;-71
2024/01/27 05:34:00;;;;;;;5.40;1.60;;;;;;;4.77;63.87;100426.50;102991;1282;605244;-67
2024/01/27 05:36:29;;;;;;;6.00;1.90;;;;;;;5.53;62.11;100429.79;104148;1266;141091;-66
2024/01/27 05:38:57;;;;;;;4.70;1.60;;;;;;;5.61;61.90;100432.14;104784;1271;58781;-64
2024/01/27 05:41:30;;;;;;;5.60;2.40;;;;;;;5.65;61.92;100434.70;104200;1265;63371;-70
2024/01/27 05:43:58;;;;;;;6.10;2.70;;;;;;;5.70;62.08;100436.13;104207;1266;61332;-71
2024/01/27 05:46:25;;;;;;;8.70;5.50;;;;;;;5.72;62.05;100437.36;104184;1266;62436;-64
2024/01/27 05:48:53;;;;;;;7.30;3.00;;;;;;;5.72;61.84;100438.61;104212;1268;59277;-65
2024/01/27 05:51:23;;;;;;;6.40;2.10;;;;;;;5.65;61.56;100440.07;105220;1270;59263;-68
2024/01/27 05:53:50;;;;;;;6.30;2.80;;;;;;;5.57;61.56;100442.30;104373;1270;63849;-70
2024/01/27 05:56:21;;;;;;;8.20;2.60;;;;;;;5.53;61.39;100443.91;104338;1266;61637;-67
2024/01/27 05:58:49;;;;;;;6.60;2.30;;;;;;;5.50;61.08;100444.44;104245;1266;63683;-63
2024/01/27 06:01:19;;;;;;;7.20;3.50;;;;;;;5.40;61.12;100447.94;104173;1267;59689;-62
2024/01/27 06:03:47;;;;;;;7.90;3.20;;;;;;;5.33;61.38;100448.86;104102;1267;59709;-69
2024/01/27 06:06:15;;;;;;;8.20;2.80;;;;;;;5.35;61.51;100444.07;104187;1271;64161;-72
2024/01/27 06:08:43;;;;;;;8.70;3.40;;;;;;;5.37;61.55;100446.02;104230;1270;61416;-72
2024/01/27 06:11:11;;;;;;;5.80;2.00;;;;;;;5.45;61.45;100446.42;104520;1271;62489;-68
2024/01/27 06:13:40;;;;;;;5.90;2.10;;;;;;;5.54;61.11;100446.98;104161;1266;59606;-71
2024/01/27 06:16:11;;;;;;;5.30;2.00;;;;;;;5.53;60.81;100452.05;105795;1266;59577;-65
2024/01/27 06:18:39;;;;;;;7.70;2.80;;;;;;;5.56;60.79;100456.41;104157;1266;64154;-66
2024/01/27 06:21:07;;;;;;;5.30;2.00;;;;;;;5.58;60.65;100454.00;104555;1266;62310;-66
2024/01/27 06:23:35;;;;;;;5.50;2.20;;;;;;;5.56;60.64;100457.42;105537;1269;64230;-65
2024/01/27 06:26:09;;;;;;;7.70;2.90;;;;;;;5.53;60.58;100460.64;104264;1267;60076;-67
2024/01/27 06:28:36;;;;;;;5.90;2.20;;;;;;;5.42;60.63;100466.30;104596;1263;59835;-65
2024/01/27 06:31:04;;;;;;;6.90;2.30;;;;;;;5.40;60.75;100467.59;104343;1264;64329;-69
2024/01/27 06:33:31;;;;;;;7.70;2.60;;;;;;;5.33;60.96;100469.88;104437;1267;60214;-68
2024/01/27 06:35:59;;;;;;;7.80;3.10;;;;;;;5.29;60.91;100467.02;104361;1268;63692;-68
2024/01/27 06:38:27;;;;;;;7.30;2.40;;;;;;;5.25;60.84;100469.16;104928;1267;59696;-68
2024/01/27 06:40:55;;;;;;;6.70;2.20;;;;;;;5.18;60.96;100470.93;104686;1268;59733;-67
2024/01/27 06:43:23;;;;;;;7.50;3.40;;;;;;;5.14;61.05;100473.24;105410;1267;64111;-69
2024/01/27 06:45:51;;;;;;;8.20;3.10;;;;;;;5.08;61.09;100477.77;106194;1266;61329;-59
2024/01/27 06:48:19;;;;;;;5.00;2.20;;;;;;;5.00;61.24;100479.40;107938;1264;62586;-61
2024/01/27 06:50:47;;;;;;;4.60;1.80;;;;;;;4.91;61.34;100481.09;104811;1267;59739;-60
2024/01/27 06:53:15;;;;;;;8.00;1.40;;;;;;;4.91;61.48;100486.84;104633;1267;59686;-61
2024/01/27 06:55:42;;;;;;;13.40;6.20;;;;;;;4.98;61.36;100486.63;104512;1263;64575;-59
2024/01/27 06:58:10;;;;;;;13.10;6.20;;;;;;;5.03;61.29;100488.95;104696;1264;61392;-59
2024/01/27 07:00:38;;;;;;;26.20;12.50;;;;;;;5.02;61.38;100493.86;104541;1267;62580;-60
2024/01/27 07:03:06;;;;;;;16.90;8.40;;;;;;;5.05;61.44;100498.95;104474;1269;60378;-61
2024/01/27 07:05:38;;;;;;;15.60;7.50;;;;;;;5.09;61.47;100500.48;104401;1263;59861;-60
2024/01/27 07:08:07;;;;;;;20.20;6.00;;;;;;;5.10;61.56;100502.65;108139;1266;64177;-61
2024/01/27 07:10:35;;;;;;;11.40;4.50;;;;;;;5.10;61.55;100500.60;105742;1264;60529;-60
2024/01/27 07:13:03;;;;;;;11.70;4.70;;;;;;;5.07;61.70;100504.75;105080;1259;65232;-60
2024/01/27 07:15:30;;;;;;;9.50;4.50;;;;;;;5.00;61.73;100506.17;105144;1259;59721;-60
2024/01/27 07:17:58;;;;;;;14.60;6.60;;;;;;;4.93;61.70;100502.89;105086;1254;59736;-60
2024/01/27 07:20:28;;;;;;;14.00;8.10;;;;;;;4.83;61.87;100504.11;105776;1254;64139;-60
2024/01/27 07:22:56;;;;;;;16.20;6.60;;;;;;;4.77;61.87;100505.19;107316;1259;62926;-59
2024/01/27 07:25:24;;;;;;;11.20;4.90;;;;;;;4.72;62.26;100501.24;105078;1257;63870;-60
2024/01/27 07:27:51;;;;;;;9.30;3.20;;;;;;;4.78;62.55;100501.45;108239;1259;59826;-60
2024/01/27 07:30:19;;;;;;;8.00;3.10;;;;;;;4.84;62.70;100502.20;105046;1259;59680;-61
2024/01/27 07:32:47;;;;;;;6.10;2.90;;;;;;;4.96;62.64;100506.70;105888;1259;64161;-60
2024/01/27 07:35:15;;;;;;;6.10;2.00;;;;;;;5.10;62.55;100506.50;105884;1260;61355;-59
2024/01/27 07:37:43;;;;;;;5.50;1.80;;;;;;;5.21;62.35;100506.42;105191;1259;63949;-58
2024/01/27 07:40:11;;;;;;;7.80;2.60;;;;;;;5.31;62.30;100507.26;105021;1259;59855;-59
2024/01/27 07:42:41;;;;;;;7.60;3.70;;;;;;;5.40;62.15;100507.27;105347;1254;61408;-59
2024/01/27 07:45:08;;;;;;;8.20;2.80;;;;;;;5.46;62.10;100506.09;106948;1254;63055;-59
2024/01/27 07:47:36;;;;;;;5.60;2.00;;;;;;;5.49;61.96;100505.73;105094;1258;60115;-60
2024/01/27 07:50:04;;;;;;;7.60;3.00;;;;;;;5.52;61.72;100505.01;105093;1254;62440;-60
2024/01/27 07:52:32;;;;;;;6.80;2.80;;;;;;;5.51;61.44;100503.36;107166;1254;59837;-59
2024/01/27 07:55:00;;;;;;;7.20;2.30;;;;;;;5.46;61.31;100504.52;105058;1254;59673;-60
2024/01/27 07:57:28;;;;;;;7.40;3.40;;;;;;;5.43;61.23;100509.70;105095;1253;64204;-59
2024/01/27 07:59:55;;;;;;;9.70;2.80;;;;;;;5.38;61.29;100506.69;105800;1260;61578;-62
2024/01/27 08:02:23;;;;;;;7.70;3.10;;;;;;;5.39;61.27;100507.66;107297;1259;63656;-61
2024/01/27 08:04:50;;;;;;;9.40;3.40;;;;;;;5.46;61.11;100514.94;104960;1254;59775;-59
2024/01/27 08:07:18;;;;;;;7.10;2.80;;;;;;;5.49;60.97;100518.58;104921;1254;59676;-60
2024/01/27 08:09:46;;;;;;;8.20;2.90;;;;;;;5.52;60.91;100522.77;104795;1260;62898;-63
2024/01/27 08:12:13;;;;;;;7.30;3.10;;;;;;;5.50;61.15;100523.77;104785;1259;61397;-59
2024/01/27 08:14:41;;;;;;;7.80;3.00;;;;;;;5.49;61.26;100524.20;104721;1260;62429;-65
2024/01/27 08:17:09;;;;;;;7.50;2.80;;;;;;;5.46;61.28;100527.49;105090;1259;59654;-59
2024/01/27 08:19:37;;;;;;;8.40;3.30;;;;;;;5.43;61.23;100533.74;104921;1254;59737;-63
2024/01/27 08:22:05;;;;;;;6.50;2.80;;;;;;;5.45;61.02;100538.66;105516;1255;62807;-59
2024/01/27 08:24:32;;;;;;;4.30;1.30;;;;;;;5.49;61.00;100538.61;105010;1260;61352;-60
2024/01/27 08:27:01;;;;;;;6.40;3.00;;;;;;;5.53;60.96;100536.48;105029;1257;63718;-60
2024/01/27 08:29:29;;;;;;;9.00;3.80;;;;;;;5.57;61.05;100534.68;105208;1259;59647;-60
2024/01/27 08:31:56;;;;;;;7.10;2.90;;;;;;;5.60;61.10;100541.98;105070;1254;59546;-61
2024/01/27 08:34:24;;;;;;;7.60;3.20;;;;;;;5.62;61.16;100544.86;105045;1259;62827;-59
2024/01/27 08:36:52;;;;;;;7.50;3.20;;;;;;;5.62;61.14;100546.95;105078;1255;61332;-62
2024/01/27 08:39:19;;;;;;;7.70;3.80;;;;;;;5.62;61.03;100549.40;104958;1255;62494;-62
2024/01/27 08:41:47;;;;;;;7.20;2.60;;;;;;;5.57;61.03;100548.58;105088;1254;59819;-62
2024/01/27 08:44:14;;;;;;;19.10;7.50;;;;;;;5.51;60.91;100550.52;105152;1254;59741;-62
2024/01/27 08:46:42;;;;;;;21.10;7.90;;;;;;;5.40;60.95;100551.14;105109;1254;64081;-61
2024/01/27 08:49:09;;;;;;;11.60;4.40;;;;;;;5.26;61.06;100554.15;105143;1260;60322;-59
2024/01/27 08:51:37;;;;;;;10.10;3.90;;;;;;;5.15;61.24;100556.30;105062;1254;64249;-58
2024/01/27 08:54:05;;;;;;;8.50;3.30;;;;;;;5.09;61.48;100554.53;105157;1256;59753;-59
2024/01/27 08:56:33;;;;;;;7.60;3.30;;;;;;;5.06;61.74;100551.40;105233;1259;59768;-59
2024/01/27 08:59:00;;;;;;;6.80;2.10;;;;;;;5.12;61.80;100552.64;105585;1254;64060;-60
2024/01/27 09:01:28;;;;;;;5.20;2.90;;;;;;;5.22;61.63;100554.54;105547;1254;61434;-59
2024/01/27 09:03:56;;;;;;;6.90;2.30;;;;;;;5.27;61.59;100555.64;104962;1254;63752;-59
2024/01/27 09:06:24;;;;;;;8.40;3.40;;;;;;;5.32;61.66;100554.83;105132;1254;59747;-60
2024/01/27 09:08:57;;;;;;;7.20;2.30;;;;;;;5.43;61.93;100554.95;105076;1259;59721;-59
2024/01/27 09:11:29;;;;;;;8.30;2.60;;;;;;;5.55;61.99;100554.10;105023;1255;62920;-59
2024/01/27 09:13:57;;;;;;;9.20;2.90;;;;;;;5.66;62.23;100558.16;105092;1253;61388;-60
2024/01/27 09:16:24;;;;;;;9.20;3.60;;;;;;;5.74;62.24;100557.90;104990;1258;63713;-60
2024/01/27 09:18:52;;;;;;;7.90;3.50;;;;;;;5.78;62.02;100557.50;105170;1254;59674;-61
2024/01/27 09:21:22;;;;;;;8.50;2.80;;;;;;;5.79;61.64;100557.08;106037;1254;60145;-62
2024/01/27 09:23:50;;;;;;;8.00;4.00;;;;;;;5.78;61.60;100557.65;106565;1260;64195;-60
2024/01/27 09:26:18;;;;;;;8.70;3.50;;;;;;;5.80;61.43;100559.67;105058;1259;60134;-59
2024/01/27 09:28:53;;;;;;;10.50;3.70;;;;;;;5.80;61.33;100558.45;106031;1255;63713;-59
2024/01/27 09:31:22;;;;;;;7.50;2.40;;;;;;;5.83;61.19;100557.59;105864;1260;59834;-59
2024/01/27 09:33:52;;;;;;;7.60;3.10;;;;;;;5.87;60.79;100558.52;105904;1254;60540;-59
2024/01/27 09:36:21;;;;;;;7.70;3.80;;;;;;;5.88;60.62;100557.46;105842;1259;64164;-59
2024/01/27 09:38:49;;;;;;;8.50;3.20;;;;;;;5.85;60.56;100558.50;105355;1258;60450;-60
2024/01/27 09:41:17;;;;;;;8.30;4.40;;;;;;;5.80;60.36;100557.02;105271;1254;63688;-61
2024/01/27 09:43:45;;;;;;;6.70;3.20;;;;;;;5.72;60.11;100558.54;105070;1254;60461;-61
2024/01/27 09:46:14;;;;;;;7.50;2.90;;;;;;;5.61;60.03;100558.27;105362;1254;60326;-61
2024/01/27 09:48:42;;;;;;;7.50;2.70;;;;;;;5.56;60.16;100560.67;106929;1254;67520;-62
2024/01/27 09:51:10;;;;;;;6.90;2.60;;;;;;;5.52;60.21;100559.33;105386;1254;61361;-62
2024/01/27 09:53:38;;;;;;;8.10;3.00;;;;;;;5.45;60.12;100561.98;105385;1254;63702;-61
2024/01/27 09:56:05;;;;;;;9.10;3.90;;;;;;;5.40;60.22;100567.28;106944;1254;60397;-63
2024/01/27 09:58:33;;;;;;;6.10;3.00;;;;;;;5.35;60.33;100574.01;105096;1254;60552;-56
2024/01/27 10:01:02;;;;;;;6.40;2.10;;;;;;;5.27;60.42;100573.55;108739;1254;65395;-61
2024/01/27 10:03:30;;;;;;;7.90;2.50;;;;;;;5.28;60.52;100573.88;108033;1254;60091;-62
2024/01/27 10:05:58;;;;;;;6.50;2.90;;;;;;;5.29;60.44;100577.11;105447;1261;62632;-60
2024/01/27 10:08:26;;;;;;;6.10;2.40;;;;;;;5.26;60.36;100580.39;105689;1260;60566;-59
2024/01/27 10:10:58;;;;;;;8.70;2.80;;;;;;;5.23;60.52;100581.26;105106;1254;60753;-59
2024/01/27 10:13:28;;;;;;;6.90;2.00;;;;;;;5.18;60.70;100580.81;105912;1254;67369;-59
2024/01/27 10:16:14;;;;;;;5.20;2.20;;;;;;;5.16;60.76;100582.34;105134;1258;60579;-60
2024/01/27 10:18:42;;;;;;;5.90;2.30;;;;;;;5.27;60.41;100582.63;105024;1258;62481;-60
2024/01/27 10:21:18;;;;;;;5.20;2.20;;;;;;;5.28;60.46;100585.17;105104;1253;60732;-61
2024/01/27 10:23:46;;;;;;;6.80;2.60;;;;;;;5.27;60.48;100585.92;105195;1258;60396;-60
2024/01/27 10:26:13;;;;;;;7.20;2.00;;;;;;;5.23;60.58;100590.67;105209;1255;65885;-60
2024/01/27 10:28:42;;;;;;;6.90;2.40;;;;;;;5.18;60.65;100594.39;105131;1259;60469;-51
2024/01/27 10:31:10;;;;;;;7.70;2.30;;;;;;;5.21;60.62;100597.20;107050;1253;64226;-54
2024/01/27 10:33:39;;;;;;;6.60;2.20;;;;;;;5.26;60.62;100597.64;105377;1254;60503;-56
2024/01/27 10:36:07;;;;;;;5.30;2.40;;;;;;;5.27;60.42;100596.52;105571;1255;60514;-62
2024/01/27 10:38:36;;;;;;;4.80;1.80;;;;;;;5.24;60.38;100597.75;105183;1259;73864;-62
2024/01/27 10:41:07;;;;;;;6.50;2.20;;;;;;;5.18;60.20;100597.38;105129;1254;61393;-62
2024/01/27 10:43:35;;;;;;;6.40;2.50;;;;;;;5.14;60.21;100599.34;105138;1254;62572;-60
2024/01/27 10:46:05;;;;;;;6.60;2.50;;;;;;;5.13;60.26;100599.23;105384;1254;60540;-62
2024/01/27 10:48:36;;;;;;;5.90;2.60;;;;;;;5.16;60.22;100602.52;105082;1253;60365;-56
2024/01/27 10:51:07;;;;;;;5.20;1.90;;;;;;;5.13;60.36;100604.59;105692;1254;65002;-59
2024/01/27 10:53:39;;;;;;;4.60;1.70;;;;;;;5.02;60.81;100606.38;105597;1253;61504;-59
2024/01/27 10:56:09;;;;;;;6.10;2.30;;;;;;;4.94;60.90;100606.97;106400;1254;63346;-63
2024/01/27 10:58:42;;;;;;;7.00;1.90;;;;;;;4.93;60.74;100607.93;106141;1259;60560;-56
2024/01/27 11:01:13;;;;;;;5.80;2.60;;;;;;;4.96;60.76;100610.39;106153;1259;60347;-60
2024/01/27 11:03:41;;;;;;;7.60;2.00;;;;;;;4.91;60.76;100613.55;105209;1254;64839;-59
2024/01/27 11:06:09;;;;;;;6.50;2.10;;;;;;;4.91;60.78;100614.63;104985;1254;63728;-58
2024/01/27 11:08:37;;;;;;;6.50;2.10;;;;;;;4.89;60.78;100617.54;105206;1260;63796;-58
2024/01/27 11:11:10;;;;;;;7.80;2.20;;;;;;;4.94;60.76;100619.66;105147;1260;61841;-57
2024/01/27 11:13:39;;;;;;;6.10;2.30;;;;;;;5.01;60.76;100620.19;106915;1254;59757;-59
2024/01/27 11:16:15;;;;;;;6.10;2.20;;;;;;;5.07;60.83;100618.63;105334;1254;73388;-59
2024/01/27 11:18:42;;;;;;;6.10;1.90;;;;;;;5.12;60.68;100621.68;105163;1253;61324;-58
2024/01/27 11:21:15;;;;;;;7.20;2.00;;;;;;;5.14;60.40;100628.04;105522;1257;64251;-56
2024/01/27 11:23:46;;;;;;;5.20;2.30;;;;;;;5.14;60.24;100628.03;105320;1259;60608;-58
2024/01/27 11:26:21;;;;;;;5.20;1.80;;;;;;;5.15;59.96;100631.61;105125;1254;60563;-60
2024/01/27 11:28:49;;;;;;;5.40;1.90;;;;;;;5.13;59.83;100632.36;105820;1253;65077;-62
2024/01/27 11:31:19;;;;;;;4.20;1.70;;;;;;;5.11;59.89;100633.20;106133;1259;61515;-60
2024/01/27 11:33:48;;;;;;;6.80;2.20;;;;;;;5.05;59.89;100634.22;105035;1254;64113;-58
2024/01/27 11:36:23;;;;;;;6.80;2.00;;;;;;;5.06;59.80;100637.85;105092;1260;60559;-58
2024/01/27 11:38:53;;;;;;;5.20;2.30;;;;;;;5.10;59.53;100634.34;109080;1253;58560;-60
2024/01/27 11:41:27;;;;;;;6.00;2.00;;;;;;;5.13;59.48;100635.21;105724;1254;64874;-60